sensor_id;sensor_type;location;lat;lon;timestamp;P1;durP1;ratioP1;P2;durP2;ratioP2
40052;SDS011;25758;48.200;16.338;2024-01-15T00:01:32;7.57;;;3.63;;
40052;SDS011;25758;48.200;16.338;2024-01-15T00:04:06;8.37;;;3.27;;
40052;SDS011;25758;48.200;16.338;2024-01-15T00:06:32;8.55;;;4.07;;
40052;SDS011;25758;48.200;16.338;2024-01-15T00:08:58;10.02;;;4.38;;
40052;SDS011;25758;48.200;16.338;2024-01-15T00:14:28;10.75;;;4.43;;
40052;SDS011;25758;48.200;16.338;2024-01-15T00:16:54;9.32;;;4.60;;
40052;SDS011;25758;48.200;16.338;2024-01-15T00:19:20;10.80;;;4.95;;
40052;SDS011;25758;48.200;16.338;2024-01-15T00:22:04;14.35;;;5.05;;
40052;SDS011;25758;48.200;16.338;2024-01-15T00:24:42;14.27;;;5.23;;
40052;SDS011;25758;48.200;16.338;2024-01-15T00:27:08;12.00;;;5.15;;
40052;SDS011;25758;48.200;16.338;2024-01-15T00:29:33;12.60;;;4.97;;
40052;SDS011;25758;48.200;16.338;2024-01-15T00:31:59;10.60;;;5.63;;
40052;SDS011;25758;48.200;16.338;2024-01-15T00:34:25;11.83;;;5.20;;
40052;SDS011;25758;48.200;16.338;2024-01-15T00:36:50;12.17;;;4.90;;
40052;SDS011;25758;48.200;16.338;2024-01-15T00:42:08;13.30;;;5.23;;
40052;SDS011;25758;48.200;16.338;2024-01-15T00:44:33;10.47;;;4.77;;
40052;SDS011;25758;48.200;16.338;2024-01-15T00:47:04;10.43;;;4.57;;
40052;SDS011;25758;48.200;16.338;2024-01-15T00:49:37;10.63;;;4.40;;
40052;SDS011;25758;48.200;16.338;2024-01-15T00:52:03;12.10;;;4.80;;
40052;SDS011;25758;48.200;16.338;2024-01-15T00:54:29;9.97;;;4.70;;
40052;SDS011;25758;48.200;16.338;2024-01-15T00:57:06;11.90;;;4.57;;
40052;SDS011;25758;48.200;16.338;2024-01-15T00:59:33;10.37;;;4.20;;
40052;SDS011;25758;48.200;16.338;2024-01-15T01:01:58;8.80;;;4.60;;
40052;SDS011;25758;48.200;16.338;2024-01-15T01:04:24;10.33;;;4.57;;
40052;SDS011;25758;48.200;16.338;2024-01-15T01:06:54;12.57;;;3.77;;
40052;SDS011;25758;48.200;16.338;2024-01-15T01:09:21;10.30;;;4.00;;
40052;SDS011;25758;48.200;16.338;2024-01-15T01:11:47;6.50;;;3.47;;
40052;SDS011;25758;48.200;16.338;2024-01-15T01:14:12;9.80;;;4.20;;
40052;SDS011;25758;48.200;16.338;2024-01-15T01:16:38;8.50;;;4.03;;
40052;SDS011;25758;48.200;16.338;2024-01-15T01:24:42;9.87;;;3.33;;
40052;SDS011;25758;48.200;16.338;2024-01-15T01:27:08;9.53;;;3.83;;
40052;SDS011;25758;48.200;16.338;2024-01-15T01:29:33;8.80;;;3.60;;
40052;SDS011;25758;48.200;16.338;2024-01-15T01:32:00;9.80;;;3.87;;
40052;SDS011;25758;48.200;16.338;2024-01-15T01:34:25;9.30;;;4.10;;
40052;SDS011;25758;48.200;16.338;2024-01-15T01:36:51;10.03;;;4.07;;
40052;SDS011;25758;48.200;16.338;2024-01-15T01:42:12;7.97;;;3.67;;
40052;SDS011;25758;48.200;16.338;2024-01-15T01:44:44;7.63;;;3.63;;
40052;SDS011;25758;48.200;16.338;2024-01-15T01:47:10;11.50;;;4.07;;
40052;SDS011;25758;48.200;16.338;2024-01-15T01:49:36;9.30;;;3.60;;
40052;SDS011;25758;48.200;16.338;2024-01-15T01:52:04;12.23;;;4.20;;
40052;SDS011;25758;48.200;16.338;2024-01-15T01:57:32;11.03;;;4.33;;
40052;SDS011;25758;48.200;16.338;2024-01-15T02:00:00;12.97;;;5.20;;
40052;SDS011;25758;48.200;16.338;2024-01-15T02:02:46;11.93;;;5.30;;
40052;SDS011;25758;48.200;16.338;2024-01-15T02:05:12;11.63;;;5.82;;
40052;SDS011;25758;48.200;16.338;2024-01-15T02:07:43;12.93;;;5.80;;
40052;SDS011;25758;48.200;16.338;2024-01-15T02:10:15;13.00;;;5.73;;
40052;SDS011;25758;48.200;16.338;2024-01-15T02:12:42;12.07;;;5.23;;
40052;SDS011;25758;48.200;16.338;2024-01-15T02:15:08;16.37;;;6.17;;
40052;SDS011;25758;48.200;16.338;2024-01-15T02:18:16;15.70;;;5.70;;
40052;SDS011;25758;48.200;16.338;2024-01-15T02:20:23;13.70;;;5.90;;
40052;SDS011;25758;48.200;16.338;2024-01-15T02:22:51;15.43;;;5.90;;
40052;SDS011;25758;48.200;16.338;2024-01-15T02:25:18;14.27;;;6.27;;
40052;SDS011;25758;48.200;16.338;2024-01-15T02:27:43;12.47;;;6.17;;
40052;SDS011;25758;48.200;16.338;2024-01-15T02:30:13;14.47;;;6.57;;
40052;SDS011;25758;48.200;16.338;2024-01-15T02:32:47;15.00;;;6.27;;
40052;SDS011;25758;48.200;16.338;2024-01-15T02:35:13;10.93;;;5.63;;
40052;SDS011;25758;48.200;16.338;2024-01-15T02:37:39;15.87;;;7.17;;
40052;SDS011;25758;48.200;16.338;2024-01-15T02:40:05;13.00;;;5.97;;
40052;SDS011;25758;48.200;16.338;2024-01-15T02:42:31;12.67;;;5.80;;
40052;SDS011;25758;48.200;16.338;2024-01-15T02:44:56;13.70;;;6.43;;
40052;SDS011;25758;48.200;16.338;2024-01-15T02:47:22;13.20;;;5.73;;
40052;SDS011;25758;48.200;16.338;2024-01-15T02:49:47;14.50;;;5.93;;
40052;SDS011;25758;48.200;16.338;2024-01-15T02:52:13;13.47;;;5.87;;
40052;SDS011;25758;48.200;16.338;2024-01-15T02:54:39;14.50;;;5.67;;
40052;SDS011;25758;48.200;16.338;2024-01-15T02:57:04;13.10;;;5.27;;
40052;SDS011;25758;48.200;16.338;2024-01-15T02:59:33;15.80;;;6.37;;
40052;SDS011;25758;48.200;16.338;2024-01-15T03:04:49;10.27;;;4.97;;
40052;SDS011;25758;48.200;16.338;2024-01-15T03:07:15;15.00;;;6.70;;
40052;SDS011;25758;48.200;16.338;2024-01-15T03:09:41;16.17;;;7.20;;
40052;SDS011;25758;48.200;16.338;2024-01-15T03:12:07;13.47;;;5.63;;
40052;SDS011;25758;48.200;16.338;2024-01-15T03:14:33;13.27;;;6.37;;
40052;SDS011;25758;48.200;16.338;2024-01-15T03:17:00;11.87;;;5.83;;
40052;SDS011;25758;48.200;16.338;2024-01-15T03:19:26;16.03;;;7.10;;
40052;SDS011;25758;48.200;16.338;2024-01-15T03:21:51;16.87;;;6.73;;
40052;SDS011;25758;48.200;16.338;2024-01-15T03:24:17;12.57;;;6.27;;
40052;SDS011;25758;48.200;16.338;2024-01-15T03:26:43;14.47;;;6.13;;
40052;SDS011;25758;48.200;16.338;2024-01-15T03:29:09;16.00;;;7.37;;
40052;SDS011;25758;48.200;16.338;2024-01-15T03:31:34;13.87;;;6.83;;
40052;SDS011;25758;48.200;16.338;2024-01-15T03:34:04;18.67;;;7.57;;
40052;SDS011;25758;48.200;16.338;2024-01-15T03:39:52;15.83;;;7.07;;
40052;SDS011;25758;48.200;16.338;2024-01-15T03:48:40;17.23;;;7.93;;
40052;SDS011;25758;48.200;16.338;2024-01-15T03:51:05;17.77;;;8.17;;
40052;SDS011;25758;48.200;16.338;2024-01-15T03:53:31;16.00;;;6.87;;
40052;SDS011;25758;48.200;16.338;2024-01-15T03:56:03;20.27;;;7.80;;
40052;SDS011;25758;48.200;16.338;2024-01-15T03:58:36;23.73;;;10.43;;
40052;SDS011;25758;48.200;16.338;2024-01-15T04:01:02;21.37;;;9.60;;
40052;SDS011;25758;48.200;16.338;2024-01-15T04:03:28;16.13;;;7.47;;
40052;SDS011;25758;48.200;16.338;2024-01-15T04:05:53;19.70;;;9.20;;
40052;SDS011;25758;48.200;16.338;2024-01-15T04:08:19;19.53;;;8.63;;
40052;SDS011;25758;48.200;16.338;2024-01-15T04:10:45;17.50;;;8.23;;
40052;SDS011;25758;48.200;16.338;2024-01-15T04:13:12;20.53;;;8.70;;
40052;SDS011;25758;48.200;16.338;2024-01-15T04:18:28;17.17;;;7.67;;
40052;SDS011;25758;48.200;16.338;2024-01-15T04:20:53;19.80;;;8.53;;
40052;SDS011;25758;48.200;16.338;2024-01-15T04:23:22;17.80;;;7.90;;
40052;SDS011;25758;48.200;16.338;2024-01-15T04:25:48;15.10;;;7.33;;
40052;SDS011;25758;48.200;16.338;2024-01-15T04:28:13;13.97;;;6.93;;
40052;SDS011;25758;48.200;16.338;2024-01-15T04:30:39;12.67;;;6.17;;
40052;SDS011;25758;48.200;16.338;2024-01-15T04:33:05;21.40;;;8.03;;
40052;SDS011;25758;48.200;16.338;2024-01-15T04:35:30;16.60;;;7.53;;
40052;SDS011;25758;48.200;16.338;2024-01-15T04:37:59;16.93;;;6.60;;
40052;SDS011;25758;48.200;16.338;2024-01-15T04:40:25;19.33;;;7.83;;
40052;SDS011;25758;48.200;16.338;2024-01-15T04:42:54;19.93;;;8.13;;
40052;SDS011;25758;48.200;16.338;2024-01-15T04:45:20;15.17;;;7.03;;
40052;SDS011;25758;48.200;16.338;2024-01-15T04:47:48;15.77;;;7.37;;
40052;SDS011;25758;48.200;16.338;2024-01-15T04:50:14;17.93;;;7.60;;
40052;SDS011;25758;48.200;16.338;2024-01-15T04:52:39;17.67;;;9.00;;
40052;SDS011;25758;48.200;16.338;2024-01-15T04:55:05;17.43;;;7.83;;
40052;SDS011;25758;48.200;16.338;2024-01-15T04:57:31;18.10;;;8.80;;
40052;SDS011;25758;48.200;16.338;2024-01-15T04:59:57;19.30;;;7.73;;
40052;SDS011;25758;48.200;16.338;2024-01-15T05:02:22;15.17;;;8.40;;
40052;SDS011;25758;48.200;16.338;2024-01-15T05:04:48;19.57;;;8.20;;
40052;SDS011;25758;48.200;16.338;2024-01-15T05:07:14;19.50;;;8.70;;
40052;SDS011;25758;48.200;16.338;2024-01-15T05:09:39;19.67;;;9.77;;
40052;SDS011;25758;48.200;16.338;2024-01-15T05:12:05;20.27;;;8.43;;
40052;SDS011;25758;48.200;16.338;2024-01-15T05:14:30;19.77;;;8.63;;
40052;SDS011;25758;48.200;16.338;2024-01-15T05:16:56;15.37;;;7.90;;
40052;SDS011;25758;48.200;16.338;2024-01-15T05:19:23;16.63;;;8.43;;
40052;SDS011;25758;48.200;16.338;2024-01-15T05:21:48;16.40;;;7.87;;
40052;SDS011;25758;48.200;16.338;2024-01-15T05:24:14;17.07;;;8.23;;
40052;SDS011;25758;48.200;16.338;2024-01-15T05:26:39;19.80;;;7.90;;
40052;SDS011;25758;48.200;16.338;2024-01-15T05:29:05;22.10;;;9.23;;
40052;SDS011;25758;48.200;16.338;2024-01-15T05:34:15;23.33;;;8.67;;
40052;SDS011;25758;48.200;16.338;2024-01-15T05:36:41;21.60;;;8.93;;
40052;SDS011;25758;48.200;16.338;2024-01-15T05:39:07;18.37;;;8.47;;
40052;SDS011;25758;48.200;16.338;2024-01-15T05:41:33;17.03;;;8.37;;
40052;SDS011;25758;48.200;16.338;2024-01-15T05:43:58;19.00;;;7.57;;
40052;SDS011;25758;48.200;16.338;2024-01-15T05:46:24;17.93;;;8.30;;
40052;SDS011;25758;48.200;16.338;2024-01-15T05:48:50;16.07;;;7.73;;
40052;SDS011;25758;48.200;16.338;2024-01-15T05:51:15;15.53;;;8.10;;
40052;SDS011;25758;48.200;16.338;2024-01-15T05:53:41;15.97;;;7.00;;
40052;SDS011;25758;48.200;16.338;2024-01-15T05:56:09;16.83;;;7.13;;
40052;SDS011;25758;48.200;16.338;2024-01-15T05:58:40;16.30;;;7.87;;
40052;SDS011;25758;48.200;16.338;2024-01-15T06:01:10;20.20;;;8.60;;
40052;SDS011;25758;48.200;16.338;2024-01-15T06:03:36;13.33;;;5.67;;
40052;SDS011;25758;48.200;16.338;2024-01-15T06:06:01;16.27;;;6.67;;
40052;SDS011;25758;48.200;16.338;2024-01-15T06:08:27;9.60;;;5.37;;
40052;SDS011;25758;48.200;16.338;2024-01-15T06:10:53;13.57;;;6.27;;
40052;SDS011;25758;48.200;16.338;2024-01-15T06:13:20;13.83;;;5.47;;
40052;SDS011;25758;48.200;16.338;2024-01-15T06:15:46;11.43;;;5.50;;
40052;SDS011;25758;48.200;16.338;2024-01-15T06:18:12;14.73;;;5.67;;
40052;SDS011;25758;48.200;16.338;2024-01-15T06:20:39;13.17;;;6.33;;
40052;SDS011;25758;48.200;16.338;2024-01-15T06:23:04;18.10;;;6.40;;
40052;SDS011;25758;48.200;16.338;2024-01-15T06:25:30;13.97;;;6.50;;
40052;SDS011;25758;48.200;16.338;2024-01-15T06:27:55;10.30;;;4.20;;
40052;SDS011;25758;48.200;16.338;2024-01-15T06:30:21;13.77;;;6.40;;
40052;SDS011;25758;48.200;16.338;2024-01-15T06:32:47;14.90;;;7.23;;
40052;SDS011;25758;48.200;16.338;2024-01-15T06:35:13;13.63;;;5.70;;
40052;SDS011;25758;48.200;16.338;2024-01-15T06:37:39;15.37;;;7.07;;
40052;SDS011;25758;48.200;16.338;2024-01-15T06:40:04;12.63;;;5.93;;
40052;SDS011;25758;48.200;16.338;2024-01-15T06:42:31;14.60;;;6.63;;
40052;SDS011;25758;48.200;16.338;2024-01-15T06:44:56;14.93;;;7.33;;
40052;SDS011;25758;48.200;16.338;2024-01-15T06:47:22;16.23;;;6.73;;
40052;SDS011;25758;48.200;16.338;2024-01-15T06:49:48;14.23;;;5.90;;
40052;SDS011;25758;48.200;16.338;2024-01-15T06:52:15;18.70;;;7.93;;
40052;SDS011;25758;48.200;16.338;2024-01-15T06:54:41;13.67;;;6.53;;
40052;SDS011;25758;48.200;16.338;2024-01-15T06:57:06;13.53;;;6.47;;
40052;SDS011;25758;48.200;16.338;2024-01-15T06:59:33;13.73;;;6.90;;
40052;SDS011;25758;48.200;16.338;2024-01-15T07:02:00;13.63;;;5.50;;
40052;SDS011;25758;48.200;16.338;2024-01-15T07:04:26;15.27;;;6.47;;
40052;SDS011;25758;48.200;16.338;2024-01-15T07:06:51;10.20;;;4.27;;
40052;SDS011;25758;48.200;16.338;2024-01-15T07:09:17;13.60;;;5.50;;
40052;SDS011;25758;48.200;16.338;2024-01-15T07:11:46;18.33;;;6.83;;
40052;SDS011;25758;48.200;16.338;2024-01-15T07:14:12;14.63;;;7.13;;
40052;SDS011;25758;48.200;16.338;2024-01-15T07:16:38;14.47;;;7.00;;
40052;SDS011;25758;48.200;16.338;2024-01-15T07:29:26;12.40;;;5.70;;
40052;SDS011;25758;48.200;16.338;2024-01-15T07:31:52;14.00;;;5.67;;
40052;SDS011;25758;48.200;16.338;2024-01-15T07:42:08;10.40;;;4.47;;
40052;SDS011;25758;48.200;16.338;2024-01-15T07:52:21;12.77;;;4.77;;
40052;SDS011;25758;48.200;16.338;2024-01-15T08:28:29;13.50;;;6.73;;
40052;SDS011;25758;48.200;16.338;2024-01-15T08:33:31;10.90;;;5.07;;
40052;SDS011;25758;48.200;16.338;2024-01-15T10:21:50;7.50;;;3.67;;
40052;SDS011;25758;48.200;16.338;2024-01-15T12:24:30;5.75;;;2.10;;
40052;SDS011;25758;48.200;16.338;2024-01-15T14:20:43;5.35;;;1.35;;
40052;SDS011;25758;48.200;16.338;2024-01-15T14:23:24;2.67;;;0.88;;
40052;SDS011;25758;48.200;16.338;2024-01-15T14:36:28;4.53;;;1.35;;
40052;SDS011;25758;48.200;16.338;2024-01-15T14:44:06;4.07;;;1.52;;
40052;SDS011;25758;48.200;16.338;2024-01-15T17:06:03;1.70;;;0.80;;
40052;SDS011;25758;48.200;16.338;2024-01-15T17:08:29;2.72;;;1.40;;
40052;SDS011;25758;48.200;16.338;2024-01-15T17:10:55;3.17;;;1.45;;
40052;SDS011;25758;48.200;16.338;2024-01-15T17:13:21;3.30;;;1.63;;
40052;SDS011;25758;48.200;16.338;2024-01-15T17:15:47;4.68;;;2.50;;
40052;SDS011;25758;48.200;16.338;2024-01-15T17:18:13;4.53;;;1.60;;
40052;SDS011;25758;48.200;16.338;2024-01-15T17:20:58;7.10;;;2.58;;
40052;SDS011;25758;48.200;16.338;2024-01-15T17:23:25;5.80;;;2.00;;
40052;SDS011;25758;48.200;16.338;2024-01-15T17:25:51;4.20;;;2.17;;
40052;SDS011;25758;48.200;16.338;2024-01-15T17:28:17;9.93;;;4.63;;
40052;SDS011;25758;48.200;16.338;2024-01-15T17:30:43;2.92;;;1.20;;
40052;SDS011;25758;48.200;16.338;2024-01-15T17:33:11;2.60;;;1.27;;
40052;SDS011;25758;48.200;16.338;2024-01-15T17:35:38;3.67;;;1.40;;
40052;SDS011;25758;48.200;16.338;2024-01-15T17:38:04;2.95;;;0.90;;
40052;SDS011;25758;48.200;16.338;2024-01-15T17:40:33;4.43;;;1.65;;
40052;SDS011;25758;48.200;16.338;2024-01-15T17:43:01;2.40;;;1.00;;
40052;SDS011;25758;48.200;16.338;2024-01-15T17:45:27;2.88;;;0.93;;
40052;SDS011;25758;48.200;16.338;2024-01-15T17:47:54;2.90;;;0.90;;
40052;SDS011;25758;48.200;16.338;2024-01-15T17:50:20;1.95;;;0.82;;
40052;SDS011;25758;48.200;16.338;2024-01-15T17:52:45;3.65;;;1.20;;
40052;SDS011;25758;48.200;16.338;2024-01-15T17:55:11;5.90;;;2.70;;
40052;SDS011;25758;48.200;16.338;2024-01-15T17:57:37;2.65;;;1.23;;
40052;SDS011;25758;48.200;16.338;2024-01-15T18:00:02;2.67;;;0.85;;
40052;SDS011;25758;48.200;16.338;2024-01-15T18:02:29;6.93;;;1.58;;
40052;SDS011;25758;48.200;16.338;2024-01-15T18:04:56;2.95;;;1.38;;
40052;SDS011;25758;48.200;16.338;2024-01-15T18:07:22;3.22;;;0.70;;
40052;SDS011;25758;48.200;16.338;2024-01-15T18:09:48;3.90;;;1.48;;
40052;SDS011;25758;48.200;16.338;2024-01-15T18:12:13;3.77;;;1.10;;
40052;SDS011;25758;48.200;16.338;2024-01-15T18:14:39;1.42;;;0.60;;
40052;SDS011;25758;48.200;16.338;2024-01-15T18:17:05;3.53;;;1.17;;
40052;SDS011;25758;48.200;16.338;2024-01-15T18:19:30;2.37;;;0.60;;
40052;SDS011;25758;48.200;16.338;2024-01-15T18:21:56;2.08;;;0.88;;
40052;SDS011;25758;48.200;16.338;2024-01-15T18:24:22;2.83;;;0.60;;
40052;SDS011;25758;48.200;16.338;2024-01-15T18:26:49;2.17;;;0.50;;
40052;SDS011;25758;48.200;16.338;2024-01-15T18:29:16;1.77;;;0.40;;
40052;SDS011;25758;48.200;16.338;2024-01-15T18:31:43;1.93;;;0.53;;
40052;SDS011;25758;48.200;16.338;2024-01-15T18:34:09;4.10;;;0.60;;
40052;SDS011;25758;48.200;16.338;2024-01-15T18:36:37;2.27;;;0.97;;
40052;SDS011;25758;48.200;16.338;2024-01-15T18:39:02;2.08;;;0.70;;
40052;SDS011;25758;48.200;16.338;2024-01-15T18:41:31;8.00;;;3.57;;
40052;SDS011;25758;48.200;16.338;2024-01-15T18:43:58;5.63;;;1.48;;
40052;SDS011;25758;48.200;16.338;2024-01-15T18:46:24;8.90;;;3.42;;
40052;SDS011;25758;48.200;16.338;2024-01-15T18:48:49;5.13;;;1.07;;
40052;SDS011;25758;48.200;16.338;2024-01-15T18:51:24;3.03;;;1.02;;
40052;SDS011;25758;48.200;16.338;2024-01-15T18:53:50;1.98;;;0.90;;
40052;SDS011;25758;48.200;16.338;2024-01-15T18:56:16;3.65;;;1.05;;
40052;SDS011;25758;48.200;16.338;2024-01-15T18:58:43;4.07;;;1.17;;
40052;SDS011;25758;48.200;16.338;2024-01-15T19:01:09;3.17;;;1.23;;
40052;SDS011;25758;48.200;16.338;2024-01-15T19:03:35;2.05;;;0.65;;
40052;SDS011;25758;48.200;16.338;2024-01-15T19:06:01;2.47;;;0.80;;
40052;SDS011;25758;48.200;16.338;2024-01-15T19:08:27;2.22;;;0.77;;
40052;SDS011;25758;48.200;16.338;2024-01-15T19:10:54;1.58;;;0.40;;
40052;SDS011;25758;48.200;16.338;2024-01-15T19:13:20;1.65;;;0.32;;
40052;SDS011;25758;48.200;16.338;2024-01-15T19:15:47;1.45;;;0.55;;
40052;SDS011;25758;48.200;16.338;2024-01-15T19:18:13;2.10;;;0.60;;
40052;SDS011;25758;48.200;16.338;2024-01-15T19:20:39;2.05;;;0.52;;
40052;SDS011;25758;48.200;16.338;2024-01-15T19:23:05;3.80;;;1.10;;
40052;SDS011;25758;48.200;16.338;2024-01-15T19:25:31;3.45;;;1.25;;
40052;SDS011;25758;48.200;16.338;2024-01-15T19:27:57;1.27;;;0.60;;
40052;SDS011;25758;48.200;16.338;2024-01-15T19:30:22;1.33;;;0.40;;
40052;SDS011;25758;48.200;16.338;2024-01-15T19:32:48;4.00;;;0.80;;
40052;SDS011;25758;48.200;16.338;2024-01-15T19:35:14;1.92;;;0.50;;
40052;SDS011;25758;48.200;16.338;2024-01-15T19:37:39;0.93;;;0.30;;
40052;SDS011;25758;48.200;16.338;2024-01-15T19:40:05;2.35;;;0.60;;
40052;SDS011;25758;48.200;16.338;2024-01-15T19:42:31;3.47;;;0.65;;
40052;SDS011;25758;48.200;16.338;2024-01-15T19:44:57;1.97;;;0.63;;
40052;SDS011;25758;48.200;16.338;2024-01-15T19:47:23;1.90;;;0.90;;
40052;SDS011;25758;48.200;16.338;2024-01-15T19:49:50;4.80;;;0.88;;
40052;SDS011;25758;48.200;16.338;2024-01-15T19:52:15;1.73;;;0.70;;
40052;SDS011;25758;48.200;16.338;2024-01-15T19:54:41;3.70;;;1.13;;
40052;SDS011;25758;48.200;16.338;2024-01-15T19:57:07;13.90;;;3.78;;
40052;SDS011;25758;48.200;16.338;2024-01-15T19:59:33;2.15;;;0.85;;
40052;SDS011;25758;48.200;16.338;2024-01-15T20:01:58;3.75;;;1.38;;
40052;SDS011;25758;48.200;16.338;2024-01-15T20:04:24;1.63;;;0.77;;
40052;SDS011;25758;48.200;16.338;2024-01-15T20:06:50;1.50;;;0.47;;
40052;SDS011;25758;48.200;16.338;2024-01-15T20:09:15;3.30;;;1.37;;
40052;SDS011;25758;48.200;16.338;2024-01-15T20:11:41;3.65;;;1.00;;
40052;SDS011;25758;48.200;16.338;2024-01-15T20:14:09;1.70;;;0.80;;
40052;SDS011;25758;48.200;16.338;2024-01-15T20:16:35;2.13;;;0.68;;
40052;SDS011;25758;48.200;16.338;2024-01-15T20:19:01;3.17;;;1.05;;
40052;SDS011;25758;48.200;16.338;2024-01-15T20:21:27;1.50;;;0.70;;
40052;SDS011;25758;48.200;16.338;2024-01-15T20:23:52;2.92;;;1.00;;
40052;SDS011;25758;48.200;16.338;2024-01-15T20:26:18;3.47;;;1.60;;
40052;SDS011;25758;48.200;16.338;2024-01-15T20:28:43;2.65;;;0.82;;
40052;SDS011;25758;48.200;16.338;2024-01-15T20:31:14;2.92;;;1.25;;
40052;SDS011;25758;48.200;16.338;2024-01-15T20:33:41;2.27;;;0.90;;
40052;SDS011;25758;48.200;16.338;2024-01-15T20:36:07;1.98;;;0.88;;
40052;SDS011;25758;48.200;16.338;2024-01-15T20:38:38;1.90;;;1.13;;
40052;SDS011;25758;48.200;16.338;2024-01-15T20:41:04;1.92;;;0.80;;
40052;SDS011;25758;48.200;16.338;2024-01-15T20:43:30;3.65;;;1.35;;
40052;SDS011;25758;48.200;16.338;2024-01-15T20:45:57;4.03;;;1.37;;
40052;SDS011;25758;48.200;16.338;2024-01-15T20:48:23;3.47;;;1.10;;
40052;SDS011;25758;48.200;16.338;2024-01-15T20:50:49;4.10;;;1.67;;
40052;SDS011;25758;48.200;16.338;2024-01-15T20:53:15;2.43;;;1.00;;
40052;SDS011;25758;48.200;16.338;2024-01-15T20:55:40;3.43;;;1.57;;
40052;SDS011;25758;48.200;16.338;2024-01-15T20:58:09;3.00;;;1.33;;
40052;SDS011;25758;48.200;16.338;2024-01-15T21:00:35;3.25;;;0.85;;
40052;SDS011;25758;48.200;16.338;2024-01-15T21:03:01;3.00;;;1.20;;
40052;SDS011;25758;48.200;16.338;2024-01-15T21:05:27;4.32;;;1.23;;
40052;SDS011;25758;48.200;16.338;2024-01-15T21:07:54;2.55;;;1.25;;
40052;SDS011;25758;48.200;16.338;2024-01-15T21:10:20;3.00;;;1.10;;
40052;SDS011;25758;48.200;16.338;2024-01-15T21:12:46;3.55;;;1.23;;
40052;SDS011;25758;48.200;16.338;2024-01-15T21:15:12;3.63;;;1.85;;
40052;SDS011;25758;48.200;16.338;2024-01-15T21:17:38;4.10;;;1.58;;
40052;SDS011;25758;48.200;16.338;2024-01-15T21:20:04;2.70;;;1.55;;
40052;SDS011;25758;48.200;16.338;2024-01-15T21:22:36;2.97;;;1.30;;
40052;SDS011;25758;48.200;16.338;2024-01-15T21:25:02;3.95;;;1.60;;
40052;SDS011;25758;48.200;16.338;2024-01-15T21:27:28;2.90;;;1.47;;
40052;SDS011;25758;48.200;16.338;2024-01-15T21:29:55;4.40;;;1.63;;
40052;SDS011;25758;48.200;16.338;2024-01-15T21:32:20;5.18;;;1.75;;
40052;SDS011;25758;48.200;16.338;2024-01-15T21:34:47;10.27;;;1.73;;
40052;SDS011;25758;48.200;16.338;2024-01-15T21:37:13;4.20;;;1.60;;
40052;SDS011;25758;48.200;16.338;2024-01-15T21:39:40;4.53;;;1.40;;
40052;SDS011;25758;48.200;16.338;2024-01-15T21:42:08;5.03;;;1.20;;
40052;SDS011;25758;48.200;16.338;2024-01-15T21:44:34;3.90;;;1.90;;
40052;SDS011;25758;48.200;16.338;2024-01-15T21:47:00;3.88;;;1.15;;
40052;SDS011;25758;48.200;16.338;2024-01-15T21:49:25;3.83;;;1.67;;
40052;SDS011;25758;48.200;16.338;2024-01-15T21:51:52;5.68;;;1.38;;
40052;SDS011;25758;48.200;16.338;2024-01-15T21:54:18;3.40;;;1.60;;
40052;SDS011;25758;48.200;16.338;2024-01-15T21:56:43;3.50;;;1.88;;
40052;SDS011;25758;48.200;16.338;2024-01-15T21:59:09;2.92;;;1.35;;
40052;SDS011;25758;48.200;16.338;2024-01-15T22:01:34;4.37;;;1.77;;
40052;SDS011;25758;48.200;16.338;2024-01-15T22:04:00;2.50;;;1.37;;
40052;SDS011;25758;48.200;16.338;2024-01-15T22:06:26;3.63;;;1.92;;
40052;SDS011;25758;48.200;16.338;2024-01-15T22:08:51;3.05;;;1.35;;
40052;SDS011;25758;48.200;16.338;2024-01-15T22:11:18;5.07;;;1.55;;
40052;SDS011;25758;48.200;16.338;2024-01-15T22:13:44;2.75;;;1.73;;
40052;SDS011;25758;48.200;16.338;2024-01-15T22:16:09;6.28;;;2.22;;
40052;SDS011;25758;48.200;16.338;2024-01-15T22:18:35;2.83;;;1.48;;
40052;SDS011;25758;48.200;16.338;2024-01-15T22:21:01;3.13;;;1.17;;
40052;SDS011;25758;48.200;16.338;2024-01-15T22:23:27;2.75;;;1.33;;
40052;SDS011;25758;48.200;16.338;2024-01-15T22:25:52;3.28;;;1.60;;
40052;SDS011;25758;48.200;16.338;2024-01-15T22:28:18;3.17;;;1.30;;
40052;SDS011;25758;48.200;16.338;2024-01-15T22:30:44;2.35;;;0.95;;
40052;SDS011;25758;48.200;16.338;2024-01-15T22:33:09;6.23;;;1.23;;
40052;SDS011;25758;48.200;16.338;2024-01-15T22:35:35;2.60;;;1.33;;
40052;SDS011;25758;48.200;16.338;2024-01-15T22:38:01;5.43;;;1.38;;
40052;SDS011;25758;48.200;16.338;2024-01-15T22:40:27;3.07;;;1.50;;
40052;SDS011;25758;48.200;16.338;2024-01-15T22:42:53;3.55;;;1.02;;
40052;SDS011;25758;48.200;16.338;2024-01-15T22:45:18;3.60;;;1.37;;
40052;SDS011;25758;48.200;16.338;2024-01-15T22:47:44;5.13;;;2.13;;
40052;SDS011;25758;48.200;16.338;2024-01-15T22:50:10;3.28;;;1.38;;
40052;SDS011;25758;48.200;16.338;2024-01-15T22:52:35;3.50;;;1.13;;
40052;SDS011;25758;48.200;16.338;2024-01-15T22:55:01;4.00;;;1.43;;
40052;SDS011;25758;48.200;16.338;2024-01-15T22:57:27;3.17;;;1.30;;
40052;SDS011;25758;48.200;16.338;2024-01-15T22:59:52;2.63;;;1.05;;
40052;SDS011;25758;48.200;16.338;2024-01-15T23:02:18;1.70;;;0.90;;
40052;SDS011;25758;48.200;16.338;2024-01-15T23:04:45;2.73;;;1.20;;
40052;SDS011;25758;48.200;16.338;2024-01-15T23:07:11;2.40;;;0.97;;
40052;SDS011;25758;48.200;16.338;2024-01-15T23:09:37;2.53;;;1.00;;
40052;SDS011;25758;48.200;16.338;2024-01-15T23:12:03;3.87;;;1.53;;
40052;SDS011;25758;48.200;16.338;2024-01-15T23:14:29;2.57;;;0.87;;
40052;SDS011;25758;48.200;16.338;2024-01-15T23:16:54;3.17;;;1.37;;
40052;SDS011;25758;48.200;16.338;2024-01-15T23:19:22;2.30;;;1.23;;
40052;SDS011;25758;48.200;16.338;2024-01-15T23:21:48;5.32;;;2.08;;
40052;SDS011;25758;48.200;16.338;2024-01-15T23:24:14;4.53;;;1.50;;
40052;SDS011;25758;48.200;16.338;2024-01-15T23:26:39;2.60;;;1.23;;
40052;SDS011;25758;48.200;16.338;2024-01-15T23:29:05;3.88;;;1.42;;
40052;SDS011;25758;48.200;16.338;2024-01-15T23:31:30;3.27;;;1.37;;
40052;SDS011;25758;48.200;16.338;2024-01-15T23:33:56;3.43;;;1.43;;
40052;SDS011;25758;48.200;16.338;2024-01-15T23:36:22;2.50;;;1.30;;
40052;SDS011;25758;48.200;16.338;2024-01-15T23:38:47;3.63;;;1.20;;
40052;SDS011;25758;48.200;16.338;2024-01-15T23:41:16;2.80;;;1.60;;
40052;SDS011;25758;48.200;16.338;2024-01-15T23:43:43;3.13;;;1.83;;
40052;SDS011;25758;48.200;16.338;2024-01-15T23:46:09;2.63;;;1.27;;
40052;SDS011;25758;48.200;16.338;2024-01-15T23:48:35;2.73;;;1.53;;
40052;SDS011;25758;48.200;16.338;2024-01-15T23:51:00;3.20;;;1.53;;
40052;SDS011;25758;48.200;16.338;2024-01-15T23:53:28;3.30;;;1.43;;
40052;SDS011;25758;48.200;16.338;2024-01-15T23:55:54;3.43;;;1.60;;
40052;SDS011;25758;48.200;16.338;2024-01-15T23:58:20;3.50;;;1.57;;
